Time;durP1;ratioP1;P1;durP2;ratioP2;P2;SDS_P1;SDS_P2;PMS_P1;PMS_P2;Temp;Humidity;BMP_temperature;BMP_pressure;BME280_temperature;BME280_humidity;BME280_pressure;Samples;Min_cycle;Max_cycle;Signal;HPM_P1;HPM_P2
2021/12/07 00:04:30;;;;;;;17.93;8.73;;;;;;;-2.34;100.00;96038.41;10617212;28;20166;-65
2021/12/07 00:09:30;;;;;;;23.87;11.40;;;;;;;-2.35;100.00;96037.56;10616662;28;20201;-65
2021/12/07 00:14:37;;;;;;;27.80;12.33;;;;;;;-2.31;100.00;96027.97;10616921;28;20800;-64
2021/12/07 00:19:38;;;;;;;26.23;12.50;;;;;;;-2.33;100.00;96030.63;10616489;28;20166;-64
2021/12/07 00:24:39;;;;;;;20.93;10.17;;;;;;;-2.33;100.00;96029.78;10616296;28;20291;-65
2021/12/07 00:29:39;;;;;;;27.27;11.80;;;;;;;-2.34;100.00;96025.59;10616142;28;20201;-63
2021/12/07 00:34:55;;;;;;;18.53;9.77;;;;;;;-2.32;100.00;96021.19;10616206;28;20170;-65
2021/12/07 00:39:56;;;;;;;18.03;8.87;;;;;;;-2.33;100.00;96004.13;10615555;28;20219;-64
2021/12/07 00:44:56;;;;;;;28.53;12.63;;;;;;;-2.35;100.00;95995.72;10615711;28;20341;-64
2021/12/07 00:49:57;;;;;;;26.43;13.47;;;;;;;-2.34;100.00;95992.25;10615458;28;20218;-61
2021/12/07 00:54:57;;;;;;;22.77;10.17;;;;;;;-2.36;100.00;95978.69;10614963;28;20178;-63
2021/12/07 00:59:58;;;;;;;17.47;9.63;;;;;;;-2.34;100.00;95977.69;10597074;28;20161;-64
2021/12/07 01:05:08;;;;;;;27.00;12.83;;;;;;;-2.31;100.00;95971.53;10595261;28;20162;-63
2021/12/07 01:26:06;;;;;;;28.97;14.27;;;;;;;-2.23;100.00;95961.59;10614014;28;20205;-64
2021/12/07 01:36:36;;;;;;;26.70;12.37;;;;;;;-2.21;100.00;95952.06;10595605;28;20220;-66
2021/12/07 02:02:21;;;;;;;36.07;15.00;;;;;;;-2.08;100.00;95923.91;10593265;28;20177;-65
2021/12/07 02:07:23;;;;;;;28.23;13.03;;;;;;;-2.09;100.00;95906.84;10593776;28;20201;-62
2021/12/07 02:12:26;;;;;;;32.40;14.20;;;;;;;-2.05;100.00;95907.47;10594186;28;20244;-64
2021/12/07 02:17:27;;;;;;;33.63;15.77;;;;;;;-2.15;100.00;95902.91;10592834;28;20209;-66
2021/12/07 02:22:30;;;;;;;30.60;14.03;;;;;;;-2.13;100.00;95907.16;10593776;28;20159;-66
2021/12/07 02:27:31;;;;;;;33.07;14.70;;;;;;;-2.21;100.00;95915.34;10593675;28;20190;-63
2021/12/07 02:32:32;;;;;;;26.37;12.43;;;;;;;-2.33;100.00;95917.78;10593221;28;20166;-65
2021/12/07 02:37:34;;;;;;;28.50;13.23;;;;;;;-2.41;100.00;95919.16;10593253;28;20191;-63
2021/12/07 02:42:36;;;;;;;18.37;8.57;;;;;;;-2.45;100.00;95915.13;10593434;28;20256;-63
2021/12/07 02:47:37;;;;;;;27.57;13.80;;;;;;;-2.56;100.00;95929.47;10592365;28;20197;-65
2021/12/07 02:52:39;;;;;;;15.80;7.30;;;;;;;-2.53;100.00;95931.84;10592728;28;20162;-66
2021/12/07 02:57:43;;;;;;;20.97;10.53;;;;;;;-2.56;100.00;95921.78;10592527;28;20158;-64
2021/12/07 03:02:51;;;;;;;26.87;11.13;;;;;;;-2.57;100.00;95929.56;10591640;28;20173;-63
2021/12/07 03:08:19;;;;;;;26.90;12.93;;;;;;;-2.68;100.00;95919.94;10592089;28;20201;-64
2021/12/07 03:29:12;;;;;;;12.43;6.73;;;;;;;-2.89;100.00;95912.66;10590772;28;20300;-63
2021/12/07 03:34:13;;;;;;;29.20;11.50;;;;;;;-2.96;100.00;95908.00;10590754;28;20193;-64
2021/12/07 03:39:14;;;;;;;21.80;7.37;;;;;;;-2.92;100.00;95904.34;10591645;28;20189;-63
2021/12/07 03:44:14;;;;;;;22.87;9.93;;;;;;;-2.92;100.00;95900.03;10608953;28;20168;-65
2021/12/07 03:49:16;;;;;;;17.93;8.17;;;;;;;-3.00;100.00;95902.25;10590749;28;20212;-63
2021/12/07 03:54:16;;;;;;;18.70;8.07;;;;;;;-3.01;100.00;95908.28;10590940;28;20185;-64
2021/12/07 03:59:16;;;;;;;28.77;12.37;;;;;;;-3.11;100.00;95896.94;10608445;28;20161;-63
2021/12/07 04:04:17;;;;;;;27.17;11.83;;;;;;;-3.07;100.00;95906.09;10586575;28;20188;-64
2021/12/07 04:09:18;;;;;;;16.93;9.37;;;;;;;-3.07;100.00;95898.41;10560634;28;20190;-63
2021/12/07 04:14:20;;;;;;;24.10;12.40;;;;;;;-3.05;100.00;95887.16;10542674;28;20229;-63
2021/12/07 04:19:20;;;;;;;21.93;8.73;;;;;;;-3.03;100.00;95876.84;10541982;28;20166;-62
2021/12/07 04:24:21;;;;;;;16.37;7.43;;;;;;;-3.07;100.00;95888.16;10542653;28;20172;-63
2021/12/07 04:29:22;;;;;;;19.50;8.93;;;;;;;-3.01;100.00;95881.88;10559259;28;20194;-61
2021/12/07 04:34:22;;;;;;;17.23;9.70;;;;;;;-3.01;100.00;95885.25;10560047;28;20242;-64
2021/12/07 04:39:22;;;;;;;19.03;9.40;;;;;;;-3.02;100.00;95893.00;10561684;28;20204;-67
2021/12/07 04:44:23;;;;;;;10.97;5.47;;;;;;;-2.95;100.00;95886.59;10548113;28;20223;-64
2021/12/07 04:59:44;;;;;;;18.23;9.33;;;;;;;-2.93;100.00;95867.63;10566694;28;20380;-65
2021/12/07 05:04:44;;;;;;;10.83;6.20;;;;;;;-2.95;100.00;95861.78;10571439;28;20177;-65
2021/12/07 05:14:47;;;;;;;19.47;9.57;;;;;;;-2.96;100.00;95877.25;10571576;28;20210;-65
2021/12/07 05:25:35;;;;;;;12.97;7.40;;;;;;;-2.99;100.00;95873.13;10571823;28;20194;-61
2021/12/07 05:41:14;;;;;;;22.70;10.57;;;;;;;-2.96;100.00;95875.50;10571123;28;20166;-64
2021/12/07 05:46:14;;;;;;;23.13;10.03;;;;;;;-2.93;100.00;95884.75;10570865;28;20431;-64
2021/12/07 05:51:14;;;;;;;20.83;11.07;;;;;;;-3.02;100.00;95883.56;10570099;28;20175;-62
2021/12/07 05:56:15;;;;;;;23.43;12.07;;;;;;;-3.19;100.00;95882.03;10570158;28;20235;-64
2021/12/07 06:01:15;;;;;;;19.57;8.90;;;;;;;-3.17;100.00;95884.50;10570217;28;20170;-63
2021/12/07 06:06:15;;;;;;;25.50;12.47;;;;;;;-3.20;100.00;95882.13;10570059;28;20287;-65
2021/12/07 06:11:18;;;;;;;17.00;8.00;;;;;;;-3.04;100.00;95877.75;10569875;28;20177;-63
2021/12/07 06:16:19;;;;;;;22.03;11.77;;;;;;;-3.11;100.00;95873.91;10569279;28;20432;-63
2021/12/07 06:21:19;;;;;;;22.93;11.90;;;;;;;-3.02;100.00;95875.09;10569677;28;20182;-65
2021/12/07 06:26:20;;;;;;;19.00;10.07;;;;;;;-2.89;100.00;95866.53;10569139;28;20412;-63
2021/12/07 06:31:20;;;;;;;16.13;7.33;;;;;;;-2.82;100.00;95863.59;10568969;28;20400;-64
2021/12/07 06:36:21;;;;;;;21.07;10.93;;;;;;;-2.81;100.00;95860.13;10569322;28;20219;-64
2021/12/07 06:41:21;;;;;;;22.50;11.47;;;;;;;-2.80;100.00;95865.16;10568205;28;20163;-63
2021/12/07 06:46:22;;;;;;;21.83;10.53;;;;;;;-2.82;100.00;95854.16;10568650;28;20190;-63
2021/12/07 06:51:23;;;;;;;17.53;8.10;;;;;;;-2.69;100.00;95859.34;10568542;28;20178;-64
2021/12/07 06:56:23;;;;;;;10.90;5.23;;;;;;;-2.69;100.00;95870.44;10567811;28;20166;-64
2021/12/07 07:01:24;;;;;;;19.57;10.10;;;;;;;-2.70;100.00;95870.53;10567877;28;20174;-64
2021/12/07 07:06:24;;;;;;;15.47;8.20;;;;;;;-2.72;100.00;95867.25;10567754;28;20425;-63
2021/12/07 07:11:24;;;;;;;19.77;9.67;;;;;;;-2.74;100.00;95866.50;10567448;28;20367;-64
2021/12/07 07:16:25;;;;;;;19.37;10.30;;;;;;;-2.74;100.00;95869.06;10566929;28;20271;-62
2021/12/07 07:21:25;;;;;;;22.63;12.23;;;;;;;-2.64;100.00;95867.56;10598176;28;20190;-63
2021/12/07 07:26:26;;;;;;;22.97;12.00;;;;;;;-2.53;100.00;95870.31;10607615;28;20220;-63
2021/12/07 07:31:26;;;;;;;18.13;8.90;;;;;;;-2.54;100.00;95878.91;10609328;28;20248;-64
2021/12/07 07:36:26;;;;;;;12.87;6.40;;;;;;;-2.48;100.00;95885.41;10609041;28;20205;-63
2021/12/07 07:41:27;;;;;;;21.37;11.13;;;;;;;-2.48;100.00;95885.41;10608733;28;20174;-63
2021/12/07 07:46:27;;;;;;;13.93;8.77;;;;;;;-2.39;100.00;95872.00;10607640;28;20274;-65
2021/12/07 07:51:28;;;;;;;20.60;11.40;;;;;;;-2.26;100.00;95879.72;10592301;28;20214;-66
2021/12/07 07:56:28;;;;;;;20.13;8.20;;;;;;;-1.82;100.00;95886.28;10606538;28;20278;-67
2021/12/07 08:01:30;;;;;;;17.37;10.00;;;;;;;-1.52;100.00;95890.28;10588487;28;20342;-66
2021/12/07 08:06:30;;;;;;;17.33;10.43;;;;;;;-1.46;100.00;95895.00;10606258;28;20250;-67
2021/12/07 08:11:33;;;;;;;13.63;7.53;;;;;;;-1.19;100.00;95883.81;10604634;28;20413;-66
2021/12/07 08:16:34;;;;;;;13.77;7.67;;;;;;;-1.05;100.00;95877.72;10612420;28;20218;-64
2021/12/07 08:21:34;;;;;;;16.20;9.43;;;;;;;-0.95;100.00;95886.44;10613654;28;20170;-65
2021/12/07 08:26:35;;;;;;;22.40;9.30;;;;;;;-0.38;100.00;95877.31;10613526;28;20209;-65
2021/12/07 08:31:35;;;;;;;16.60;8.73;;;;;;;-0.49;100.00;95889.28;10613269;28;20182;-63
2021/12/07 08:36:36;;;;;;;18.40;9.53;;;;;;;-0.45;100.00;95888.16;10613465;28;20166;-65
2021/12/07 08:41:37;;;;;;;16.53;9.33;;;;;;;-0.16;100.00;95891.22;10613016;28;20180;-67
2021/12/07 08:46:37;;;;;;;14.43;8.90;;;;;;;0.43;100.00;95880.03;10629917;27;20201;-65
2021/12/07 08:51:39;;;;;;;9.77;5.73;;;;;;;0.53;99.91;95869.84;10657140;27;20177;-63
2021/12/07 09:01:59;;;;;;;7.90;5.57;;;;;;;0.73;100.00;95901.03;10657880;27;20427;-65
2021/12/07 09:06:59;;;;;;;14.13;7.03;;;;;;;0.74;99.48;95915.59;10657174;27;20199;-66
2021/12/07 09:12:00;;;;;;;39.20;10.57;;;;;;;0.83;100.00;95915.69;10657335;27;20180;-65
2021/12/07 09:17:01;;;;;;;29.10;9.57;;;;;;;0.81;100.00;95927.91;10642764;27;20219;-65
2021/12/07 09:22:03;;;;;;;15.63;8.87;;;;;;;0.87;100.00;95924.00;10614220;28;20230;-65
2021/12/07 09:27:04;;;;;;;22.23;9.90;;;;;;;1.11;100.00;95916.16;10612925;28;20273;-63
2021/12/07 09:32:04;;;;;;;38.83;12.70;;;;;;;0.81;100.00;95912.44;10613939;28;20410;-62
2021/12/07 09:37:05;;;;;;;12.13;7.10;;;;;;;1.18;98.79;95929.41;10613427;28;20188;-64
2021/12/07 09:42:05;;;;;;;30.63;8.00;;;;;;;0.88;100.00;95928.25;10613366;28;20174;-64
2021/12/07 09:47:06;;;;;;;28.17;9.37;;;;;;;0.67;100.00;95922.94;10613075;28;20202;-66
2021/12/07 09:52:06;;;;;;;15.20;7.57;;;;;;;0.47;100.00;95924.44;10612340;28;20392;-62
2021/12/07 09:57:07;;;;;;;10.07;6.27;;;;;;;0.22;100.00;95926.22;10612533;28;20185;-63
2021/12/07 10:02:07;;;;;;;25.67;10.60;;;;;;;0.26;100.00;95925.09;10612936;28;20194;-64
2021/12/07 10:07:10;;;;;;;20.70;10.50;;;;;;;0.27;100.00;95924.13;10612224;28;20198;-65
2021/12/07 10:12:17;;;;;;;16.07;8.33;;;;;;;0.84;100.00;95937.97;10612340;28;20287;-67
2021/12/07 10:17:22;;;;;;;35.00;14.20;;;;;;;0.85;100.00;95937.03;10612006;28;20220;-67
2021/12/07 10:22:22;;;;;;;11.43;7.60;;;;;;;0.63;100.00;95934.41;10610920;28;20174;-67
2021/12/07 10:27:37;;;;;;;28.70;12.53;;;;;;;0.44;100.00;95934.97;10611678;28;20193;-67
2021/12/07 10:32:39;;;;;;;30.93;14.63;;;;;;;0.62;100.00;95936.16;10611504;28;20176;-68
2021/12/07 10:37:39;;;;;;;18.63;10.70;;;;;;;0.73;100.00;95937.13;10610998;28;20176;-67
2021/12/07 10:42:40;;;;;;;23.37;11.97;;;;;;;0.89;100.00;95933.28;10593331;28;20176;-68
2021/12/07 10:47:40;;;;;;;22.87;13.47;;;;;;;1.12;100.00;95945.34;10610945;28;20231;-66
2021/12/07 10:52:42;;;;;;;22.10;12.87;;;;;;;1.11;100.00;95934.22;10609636;28;20285;-67
2021/12/07 10:57:51;;;;;;;20.67;9.97;;;;;;;0.77;100.00;95933.41;10592891;28;20177;-66
2021/12/07 11:02:58;;;;;;;28.77;15.33;;;;;;;0.21;100.00;95921.19;10610625;28;20175;-63
2021/12/07 11:08:01;;;;;;;28.50;15.10;;;;;;;0.40;100.00;95920.66;10592941;28;20197;-66
2021/12/07 11:13:18;;;;;;;20.60;11.17;;;;;;;0.22;100.00;95920.28;10609771;28;20162;-66
2021/12/07 11:18:23;;;;;;;27.23;15.17;;;;;;;0.41;100.00;95912.00;10609558;28;20213;-66
2021/12/07 11:23:31;;;;;;;25.70;13.13;;;;;;;1.00;100.00;95924.72;10609721;28;20231;-67
2021/12/07 11:34:18;;;;;;;27.27;14.37;;;;;;;0.55;100.00;95929.00;10609395;28;20170;-65
2021/12/07 11:39:46;;;;;;;21.73;11.13;;;;;;;0.41;100.00;95928.25;10609216;28;20170;-66
2021/12/07 11:44:56;;;;;;;26.53;13.17;;;;;;;0.23;100.00;95930.47;10607777;28;20380;-66
2021/12/07 11:49:59;;;;;;;21.03;10.70;;;;;;;0.17;100.00;95926.56;10608050;28;20201;-65
2021/12/07 11:55:00;;;;;;;30.87;17.07;;;;;;;0.08;100.00;95918.69;10608878;28;20166;-64
2021/12/07 12:00:00;;;;;;;33.90;18.90;;;;;;;0.08;100.00;95916.13;10607637;28;20587;-62
2021/12/07 12:05:00;;;;;;;29.90;18.53;;;;;;;0.07;100.00;95927.34;10608658;28;20337;-62
2021/12/07 12:10:01;;;;;;;29.83;15.30;;;;;;;0.19;100.00;95923.88;10608260;28;20202;-62
2021/12/07 12:15:32;;;;;;;21.53;11.53;;;;;;;0.12;100.00;95933.81;10607292;28;20269;-64
2021/12/07 12:20:47;;;;;;;28.07;15.83;;;;;;;-0.03;100.00;95937.47;10607561;28;20186;-65
2021/12/07 12:26:04;;;;;;;33.13;14.87;;;;;;;-0.04;100.00;95931.50;10590291;28;20170;-65
2021/12/07 12:31:06;;;;;;;27.20;14.73;;;;;;;-0.04;100.00;95934.09;10606997;28;20177;-65
2021/12/07 12:36:06;;;;;;;28.10;14.37;;;;;;;-0.04;100.00;95946.97;10590168;28;20171;-65
2021/12/07 12:41:11;;;;;;;33.90;15.73;;;;;;;-0.16;100.00;95929.81;10607512;28;20193;-65
2021/12/07 12:46:15;;;;;;;34.53;19.23;;;;;;;-0.15;100.00;95925.47;10607313;28;20194;-65
2021/12/07 12:51:17;;;;;;;25.90;11.00;;;;;;;-0.15;100.00;95936.63;10607538;28;20253;-65
2021/12/07 12:56:21;;;;;;;18.53;7.73;;;;;;;-0.20;100.00;95941.25;10607431;28;20322;-65
2021/12/07 13:01:28;;;;;;;28.87;15.23;;;;;;;-0.23;100.00;95939.75;10609522;28;20179;-65
2021/12/07 13:06:32;;;;;;;31.13;14.83;;;;;;;-0.17;100.00;95941.03;10614862;28;20350;-66
2021/12/07 13:11:41;;;;;;;34.17;17.03;;;;;;;-0.20;100.00;95943.81;10614565;28;20201;-64
2021/12/07 13:17:02;;;;;;;25.80;10.10;;;;;;;-0.14;100.00;95938.25;10614243;28;20218;-64
2021/12/07 13:22:06;;;;;;;33.00;16.47;;;;;;;-0.17;100.00;95941.03;10614146;28;20232;-64
2021/12/07 13:27:13;;;;;;;28.63;13.07;;;;;;;-0.14;100.00;95947.72;10613494;28;20424;-64
2021/12/07 13:32:14;;;;;;;34.33;16.33;;;;;;;-0.12;100.00;95958.72;10612742;28;20249;-66
2021/12/07 13:37:15;;;;;;;33.53;15.77;;;;;;;-0.12;100.00;95959.56;10613578;28;20178;-64
2021/12/07 13:42:22;;;;;;;34.07;17.57;;;;;;;-0.19;100.00;95966.06;10613113;28;20174;-62
2021/12/07 13:47:25;;;;;;;36.03;16.43;;;;;;;-0.14;100.00;95966.56;10612750;28;20274;-62
2021/12/07 13:52:31;;;;;;;31.00;14.43;;;;;;;-0.10;100.00;95980.06;10612794;28;20284;-64
2021/12/07 13:57:35;;;;;;;32.33;16.30;;;;;;;-0.16;100.00;95976.16;10612526;28;20173;-65
2021/12/07 14:02:35;;;;;;;33.23;17.37;;;;;;;-0.06;100.00;95978.88;10612032;28;20186;-64
2021/12/07 14:07:37;;;;;;;30.97;15.73;;;;;;;-0.08;100.00;95984.13;10605537;28;20208;-65
2021/12/07 14:12:37;;;;;;;28.40;14.57;;;;;;;-0.06;100.00;95990.03;10608549;28;20166;-64
2021/12/07 14:17:43;;;;;;;31.80;16.27;;;;;;;-0.07;100.00;95985.81;10608622;28;20439;-65
2021/12/07 14:22:46;;;;;;;28.80;15.90;;;;;;;-0.13;100.00;95995.72;10608638;28;20180;-64
2021/12/07 14:27:47;;;;;;;33.50;16.53;;;;;;;-0.17;100.00;95987.38;10608900;28;20345;-64
2021/12/07 14:32:48;;;;;;;31.33;16.87;;;;;;;-0.20;100.00;95988.44;10608758;28;20182;-62
2021/12/07 14:37:48;;;;;;;21.23;11.03;;;;;;;-0.20;100.00;95995.31;10605990;28;20254;-65
2021/12/07 14:42:49;;;;;;;34.50;15.90;;;;;;;-0.19;100.00;95992.63;10608520;28;20242;-62
2021/12/07 14:47:49;;;;;;;31.37;14.90;;;;;;;-0.20;100.00;95997.88;10607377;28;20265;-64
2021/12/07 14:52:49;;;;;;;29.43;15.77;;;;;;;-0.17;100.00;95995.09;10607103;28;20183;-61
2021/12/07 14:57:50;;;;;;;30.97;15.60;;;;;;;-0.12;100.00;95997.34;10607974;28;20193;-61
2021/12/07 15:02:50;;;;;;;31.07;15.93;;;;;;;-0.09;100.00;95984.25;10607458;28;20201;-62
2021/12/07 15:07:52;;;;;;;31.27;16.20;;;;;;;-0.15;100.00;95989.84;10605857;28;20225;-60
2021/12/07 15:12:53;;;;;;;30.27;15.53;;;;;;;-0.11;100.00;95986.94;10606038;28;20178;-63
2021/12/07 15:17:53;;;;;;;26.87;14.77;;;;;;;-0.10;100.00;95983.44;10607222;28;20428;-62
2021/12/07 15:22:54;;;;;;;31.30;15.30;;;;;;;-0.15;100.00;95995.81;10604947;28;20189;-63
2021/12/07 15:27:54;;;;;;;26.07;14.30;;;;;;;-0.08;100.00;95988.47;10604075;28;20213;-61
2021/12/07 15:32:54;;;;;;;28.97;15.57;;;;;;;0.01;100.00;95984.44;10604922;28;20194;-64
2021/12/07 15:37:55;;;;;;;28.47;14.23;;;;;;;0.03;100.00;95990.28;10604808;28;20246;-63
2021/12/07 15:42:55;;;;;;;26.03;14.53;;;;;;;-0.08;100.00;95979.00;10606007;28;20212;-59
2021/12/07 15:47:56;;;;;;;30.53;15.50;;;;;;;-0.12;100.00;95989.63;10606599;28;20219;-62
2021/12/07 15:53:02;;;;;;;29.30;15.63;;;;;;;-0.14;100.00;95991.50;10604874;28;20174;-60
2021/12/07 15:58:12;;;;;;;27.07;12.03;;;;;;;-0.10;100.00;95998.88;10605731;28;20178;-62
2021/12/07 16:03:22;;;;;;;29.97;15.03;;;;;;;-0.19;100.00;95995.19;10605884;28;20306;-61
2021/12/07 16:08:26;;;;;;;28.80;14.73;;;;;;;-0.22;100.00;95997.19;10605483;28;20210;-61
2021/12/07 16:13:32;;;;;;;24.13;13.10;;;;;;;-0.10;100.00;95985.19;10603365;28;20345;-62
2021/12/07 16:18:34;;;;;;;26.53;13.13;;;;;;;-0.16;100.00;95986.44;10528565;28;20218;-61
2021/12/07 16:23:38;;;;;;;33.73;17.03;;;;;;;-0.22;100.00;95992.03;10520741;28;20325;-61
2021/12/07 16:28:45;;;;;;;27.90;16.13;;;;;;;-0.27;100.00;95999.25;10521147;28;20206;-60
2021/12/07 16:33:48;;;;;;;29.43;14.73;;;;;;;-0.19;100.00;96008.06;10521304;28;20172;-64
2021/12/07 16:38:52;;;;;;;30.33;15.67;;;;;;;-0.16;100.00;96001.09;10528228;28;20186;-65
2021/12/07 16:43:55;;;;;;;33.27;16.43;;;;;;;-0.15;100.00;96008.69;10533266;28;20190;-64
2021/12/07 16:48:55;;;;;;;40.07;20.20;;;;;;;-0.16;100.00;96007.03;10564081;28;20183;-63
2021/12/07 16:53:55;;;;;;;28.40;14.93;;;;;;;-0.12;100.00;96003.34;10547217;28;20178;-60
2021/12/07 16:58:56;;;;;;;31.30;16.60;;;;;;;-0.15;100.00;95995.81;10547350;28;20183;-63
2021/12/07 17:03:56;;;;;;;32.23;16.30;;;;;;;-0.28;100.00;96005.31;10533119;28;20419;-61
2021/12/07 17:09:02;;;;;;;24.73;13.33;;;;;;;-0.13;100.00;95999.09;10527750;28;20215;-62
2021/12/07 17:14:02;;;;;;;30.93;15.50;;;;;;;-0.16;100.00;95998.50;10539864;28;20217;-63
2021/12/07 17:19:03;;;;;;;27.23;14.53;;;;;;;-0.10;100.00;95992.94;10608811;28;20256;-66
2021/12/07 17:24:04;;;;;;;30.57;14.13;;;;;;;-0.06;100.00;95991.75;10612521;28;20229;-64
2021/12/07 17:29:04;;;;;;;24.90;14.07;;;;;;;-0.09;100.00;95989.41;10610419;28;20209;-65
2021/12/07 17:34:06;;;;;;;30.17;15.40;;;;;;;-0.11;100.00;95991.28;10610853;28;20203;-66
2021/12/07 17:39:10;;;;;;;31.30;15.10;;;;;;;-0.19;100.00;95971.22;10611318;28;20437;-63
2021/12/07 17:44:11;;;;;;;36.00;15.87;;;;;;;-0.17;100.00;95983.97;10610768;28;20181;-64
2021/12/07 17:49:13;;;;;;;33.23;17.00;;;;;;;-0.29;100.00;95976.22;10589496;28;20224;-64
2021/12/07 17:54:13;;;;;;;31.50;16.43;;;;;;;-0.27;100.00;95971.75;10611199;28;20198;-63
2021/12/07 17:59:14;;;;;;;30.53;15.93;;;;;;;-0.17;100.00;95971.13;10608129;28;20166;-63
2021/12/07 18:04:14;;;;;;;33.63;16.90;;;;;;;-0.20;100.00;95964.41;10608618;28;20178;-63
2021/12/07 18:09:14;;;;;;;28.77;15.63;;;;;;;-0.19;100.00;95966.06;10611022;28;20198;-64
2021/12/07 18:14:17;;;;;;;29.40;15.37;;;;;;;-0.11;100.00;95957.81;10610993;28;20221;-62
2021/12/07 18:19:17;;;;;;;32.97;15.63;;;;;;;-0.21;100.00;95955.88;10610093;28;20178;-63
2021/12/07 18:24:18;;;;;;;33.47;16.97;;;;;;;-0.23;100.00;95944.03;10609098;28;20332;-62
2021/12/07 18:29:18;;;;;;;34.13;18.20;;;;;;;-0.27;100.00;95937.50;10604238;28;20250;-63
2021/12/07 18:34:19;;;;;;;30.17;15.53;;;;;;;-0.24;100.00;95937.28;10608448;28;20170;-61
2021/12/07 18:39:19;;;;;;;29.67;14.47;;;;;;;-0.33;100.00;95931.03;10608690;28;20181;-63
2021/12/07 18:44:20;;;;;;;30.60;15.20;;;;;;;-0.41;100.00;95892.16;10607301;28;20181;-64
2021/12/07 18:49:20;;;;;;;32.33;15.77;;;;;;;-0.56;100.00;95906.91;10607986;28;20204;-61
2021/12/07 18:54:20;;;;;;;38.20;19.47;;;;;;;-0.74;100.00;95903.88;10607722;28;20392;-63
2021/12/07 18:59:21;;;;;;;38.93;20.47;;;;;;;-0.95;100.00;95896.72;10607095;28;20284;-64
2021/12/07 19:04:22;;;;;;;33.77;17.00;;;;;;;-1.12;100.00;95881.63;10608392;28;20338;-64
2021/12/07 19:09:22;;;;;;;32.07;15.07;;;;;;;-1.16;100.00;95904.16;10607025;28;20229;-64
2021/12/07 19:14:22;;;;;;;29.87;15.77;;;;;;;-1.19;100.00;95888.13;10607165;28;20278;-62
2021/12/07 19:19:23;;;;;;;28.03;15.63;;;;;;;-1.20;100.00;95884.72;10607363;28;20192;-64
2021/12/07 19:24:23;;;;;;;37.90;18.57;;;;;;;-1.00;100.00;95897.97;10607614;28;20177;-63
2021/12/07 19:29:24;;;;;;;32.90;17.20;;;;;;;-0.89;100.00;95898.03;10605680;28;20251;-63
2021/12/07 19:34:24;;;;;;;21.07;10.77;;;;;;;-0.63;100.00;95896.25;10607537;28;20176;-64
2021/12/07 19:39:24;;;;;;;25.63;12.70;;;;;;;-0.57;100.00;95882.13;10606241;28;20265;-64
2021/12/07 19:44:25;;;;;;;22.13;12.13;;;;;;;-0.57;100.00;95884.69;10606635;28;20292;-63
2021/12/07 19:49:26;;;;;;;24.57;12.90;;;;;;;-0.60;100.00;95890.88;10607734;28;20220;-63
2021/12/07 19:54:27;;;;;;;24.07;13.30;;;;;;;-0.64;100.00;95891.22;10608030;28;20311;-63
2021/12/07 19:59:32;;;;;;;22.47;11.47;;;;;;;-0.61;100.00;95885.84;10607302;28;20286;-64
2021/12/07 20:04:32;;;;;;;26.90;13.93;;;;;;;-0.64;100.00;95875.78;10607645;28;20237;-64
2021/12/07 20:09:34;;;;;;;27.97;13.67;;;;;;;-0.53;100.00;95869.88;10607779;28;20346;-64
2021/12/07 20:14:38;;;;;;;25.77;13.93;;;;;;;-0.55;100.00;95880.28;10615967;28;20207;-64
2021/12/07 20:19:38;;;;;;;32.47;16.80;;;;;;;-0.61;100.00;95863.50;10615804;28;20287;-65
2021/12/07 20:24:40;;;;;;;34.27;15.87;;;;;;;-0.62;100.00;95863.63;10615702;28;20227;-63
2021/12/07 20:29:40;;;;;;;21.80;11.43;;;;;;;-0.64;100.00;95861.16;10614106;28;20204;-64
2021/12/07 20:34:44;;;;;;;32.30;15.47;;;;;;;-0.68;100.00;95852.00;10613581;28;20181;-62
2021/12/07 20:39:45;;;;;;;33.33;16.67;;;;;;;-0.69;100.00;95862.41;10615980;27;20177;-63
2021/12/07 20:44:46;;;;;;;26.67;10.90;;;;;;;-0.69;100.00;95857.25;10619427;27;20170;-63
2021/12/07 20:49:46;;;;;;;33.07;16.17;;;;;;;-0.74;100.00;95847.31;10613434;28;20282;-64
2021/12/07 20:54:48;;;;;;;36.87;17.57;;;;;;;-0.69;100.00;95844.41;10613361;28;20327;-63
2021/12/07 20:59:49;;;;;;;32.17;14.93;;;;;;;-0.69;100.00;95844.41;10612602;28;20173;-61
2021/12/07 21:04:50;;;;;;;24.03;10.20;;;;;;;-0.72;100.00;95820.56;10611799;28;20240;-61
2021/12/07 21:09:50;;;;;;;28.47;12.90;;;;;;;-0.73;100.00;95811.19;10610848;28;20408;-61
2021/12/07 21:14:50;;;;;;;23.70;9.93;;;;;;;-0.70;100.00;95807.59;10612845;28;20631;-61
2021/12/07 21:19:51;;;;;;;28.73;11.03;;;;;;;-0.67;100.00;95801.38;10613538;28;20188;-65
2021/12/07 21:24:51;;;;;;;22.03;11.73;;;;;;;-0.60;100.00;95802.59;10613806;28;20226;-62
2021/12/07 21:29:52;;;;;;;23.93;9.90;;;;;;;-0.60;100.00;95792.31;10613186;28;20217;-63
2021/12/07 21:34:52;;;;;;;29.47;14.97;;;;;;;-0.61;100.00;95799.22;10612038;28;20182;-63
2021/12/07 21:39:52;;;;;;;31.13;15.40;;;;;;;-0.63;100.00;95783.09;10612338;28;20223;-63
2021/12/07 21:44:53;;;;;;;25.03;12.63;;;;;;;-0.62;100.00;95779.56;10612637;28;20174;-61
2021/12/07 21:49:54;;;;;;;24.93;11.37;;;;;;;-0.64;100.00;95776.28;10612426;28;20266;-62
2021/12/07 21:54:55;;;;;;;27.40;14.17;;;;;;;-0.70;100.00;95766.44;10612483;28;20202;-62
2021/12/07 21:59:55;;;;;;;26.67;11.77;;;;;;;-0.66;100.00;95778.16;10613275;28;20162;-62
2021/12/07 22:04:55;;;;;;;23.03;12.30;;;;;;;-0.61;100.00;95773.50;10611678;28;20192;-63
2021/12/07 22:09:59;;;;;;;12.67;7.37;;;;;;;-0.65;100.00;95768.69;10611620;28;20255;-62
2021/12/07 22:15:00;;;;;;;21.93;12.03;;;;;;;-0.70;100.00;95757.88;10611839;28;20213;-64
2021/12/07 22:20:01;;;;;;;23.47;11.23;;;;;;;-0.68;100.00;95759.44;10612195;28;20215;-63
2021/12/07 22:25:03;;;;;;;20.13;11.00;;;;;;;-0.66;100.00;95749.88;10611023;28;20340;-63
2021/12/07 22:30:06;;;;;;;20.40;10.17;;;;;;;-0.67;100.00;95748.22;10612052;28;20412;-61
2021/12/07 22:35:07;;;;;;;13.17;6.57;;;;;;;-0.63;100.00;95749.66;10610609;28;20237;-63
2021/12/07 22:40:10;;;;;;;20.30;10.40;;;;;;;-0.69;100.00;95739.78;10610975;28;20227;-63
2021/12/07 22:45:11;;;;;;;17.83;8.67;;;;;;;-0.76;100.00;95736.03;10611061;28;20222;-62
2021/12/07 22:50:15;;;;;;;20.83;9.50;;;;;;;-0.85;100.00;95740.06;10610765;28;20198;-63
2021/12/07 22:55:16;;;;;;;17.87;9.07;;;;;;;-0.98;100.00;95729.00;10610756;28;20408;-63
2021/12/07 23:00:23;;;;;;;20.20;10.50;;;;;;;-1.16;100.00;95733.75;10610839;28;20172;-64
2021/12/07 23:05:24;;;;;;;20.97;10.27;;;;;;;-1.35;100.00;95729.88;10609961;28;20189;-64
2021/12/07 23:10:25;;;;;;;19.40;10.10;;;;;;;-1.37;100.00;95716.31;10609524;28;20488;-62
2021/12/07 23:15:27;;;;;;;20.63;8.93;;;;;;;-1.43;100.00;95706.47;10609971;28;20209;-64
2021/12/07 23:20:28;;;;;;;25.47;11.47;;;;;;;-1.52;100.00;95710.50;10609115;28;20162;-59
2021/12/07 23:25:30;;;;;;;23.03;10.40;;;;;;;-1.71;100.00;95710.97;10609583;28;20286;-64
2021/12/07 23:30:30;;;;;;;24.27;10.93;;;;;;;-1.68;100.00;95697.09;10609394;28;20210;-62
2021/12/07 23:35:31;;;;;;;24.80;11.80;;;;;;;-1.73;100.00;95700.00;10591238;28;20326;-65
2021/12/07 23:40:32;;;;;;;25.80;12.43;;;;;;;-1.88;100.00;95686.47;10609201;28;20165;-63
2021/12/07 23:45:33;;;;;;;36.20;15.30;;;;;;;-2.04;100.00;95675.59;10608231;28;20373;-64
2021/12/07 23:50:35;;;;;;;28.93;15.17;;;;;;;-1.92;100.00;95667.06;10608581;28;20246;-62
2021/12/07 23:55:35;;;;;;;35.30;16.17;;;;;;;-1.70;100.00;95648.44;10608854;28;20181;-65
